Parsons, West Virginia
Current Conditions -  °F | °C
As of 4:51 PM on Sunday 25 Jan 2015 (Local Time) from KEKN Reporting Station
Overcast Overcast  
Wind Chill: 43°   Ceiling: 8500
Heat Index: 43°   Visibility: 10mi
Dew Point: 35°   Wind: 0mph
Humidity: 74%   Direction: NA
Pressure: 29.73"   Gusts: NA
Location:  39.1°N, 79.68°W
Report Text: KEKN 252151Z AUTO 00000KT 10SM FEW055 SCT070 OVC085 06/02 A2973 RMK AO2 SLP083 T00610017 TSNO
Loading
Personal Weather Stations






























Interactive Weather Map New forecast layout! Learn more

10-Day Weather Forecast

Advertisements
Track Severe Weather on mobile